Time;durP1;ratioP1;P1;durP2;ratioP2;P2;SDS_P1;SDS_P2;PMS_P1;PMS_P2;Temp;Humidity;BMP_temperature;BMP_pressure;BME280_temperature;BME280_humidity;BME280_pressure;Samples;Min_cycle;Max_cycle;Signal;HPM_P1;HPM_P2
2023/12/17 00:02:05;;;;;;;;;60.75;47.25;;;;;6.98;66.36;103537.53;5058353;28;45812;-77
2023/12/17 00:04:30;;;;;;;;;53.00;42.75;;;;;7.43;66.52;103603.03;5061364;28;45434;-82
2023/12/17 00:06:55;;;;;;;;;52.50;43.00;;;;;7.33;66.80;103598.97;5059112;28;45443;-79
2023/12/17 00:09:21;;;;;;;;;54.75;44.00;;;;;7.38;65.93;103615.53;5059438;28;45464;-79
2023/12/17 00:11:47;;;;;;;;;54.33;44.67;;;;;7.37;66.50;103602.38;5058626;28;45479;-81
2023/12/17 00:14:12;;;;;;;;;56.50;45.00;;;;;7.40;66.63;103611.06;5057376;28;45660;-80
2023/12/17 00:16:38;;;;;;;;;58.00;47.00;;;;;7.32;66.49;103594.59;5055194;28;45162;-80
2023/12/17 00:19:04;;;;;;;;;58.75;46.25;;;;;7.11;66.89;103548.56;5049983;28;45360;-78
2023/12/17 00:21:29;;;;;;;;;56.50;45.25;;;;;7.46;66.65;103615.28;5069234;28;45417;-76
2023/12/17 00:23:54;;;;;;;;;48.00;40.75;;;;;7.20;66.87;103563.25;5057757;28;45263;-81
2023/12/17 00:26:20;;;;;;;;;55.00;44.50;;;;;7.19;66.36;103557.09;5061068;28;45194;-79
2023/12/17 00:28:45;;;;;;;;;55.75;45.50;;;;;7.50;66.32;103593.09;5058810;28;45785;-79
2023/12/17 00:31:10;;;;;;;;;59.75;46.25;;;;;7.00;66.23;103509.25;5057087;28;46119;-76
2023/12/17 00:33:36;;;;;;;;;56.75;47.50;;;;;7.66;66.16;103619.88;5054073;28;45338;-74
2023/12/17 00:36:01;;;;;;;;;56.00;45.00;;;;;7.60;65.76;103615.66;5053546;28;44861;-78
2023/12/17 00:38:26;;;;;;;;;59.75;45.00;;;;;7.33;65.90;103577.78;5051793;28;45149;-78
2023/12/17 00:40:52;;;;;;;;;55.00;44.75;;;;;7.34;66.08;103595.41;5052978;28;45672;-77
2023/12/17 00:43:17;;;;;;;;;52.50;43.75;;;;;7.51;66.08;103624.78;5053876;28;44925;-76
2023/12/17 00:45:42;;;;;;;;;54.67;45.00;;;;;7.36;65.81;103604.16;5058218;28;45027;-79
2023/12/17 00:48:08;;;;;;;;;51.00;42.75;;;;;7.53;65.69;103630.03;5070860;28;44948;-77
2023/12/17 00:50:34;;;;;;;;;51.75;43.00;;;;;7.28;65.65;103587.69;5054834;28;45056;-80
2023/12/17 00:53:00;;;;;;;;;52.75;42.00;;;;;7.41;65.18;103594.28;5054642;28;45015;-82
2023/12/17 00:55:25;;;;;;;;;52.25;43.25;;;;;7.52;65.84;103609.78;5055873;28;45179;-80
2023/12/17 00:57:50;;;;;;;;;51.00;43.00;;;;;7.51;65.85;103608.91;5055689;28;45163;-77
2023/12/17 01:00:16;;;;;;;;;59.00;43.00;;;;;7.58;65.62;103623.66;5056239;28;45162;-81
2023/12/17 01:02:42;;;;;;;;;56.50;43.50;;;;;7.51;65.97;103619.50;5071606;28;44991;-80
2023/12/17 01:05:08;;;;;;;;;57.75;44.75;;;;;7.61;66.01;103634.16;5073393;28;45120;-79
2023/12/17 01:07:33;;;;;;;;;52.50;42.75;;;;;7.68;65.65;103636.56;5074468;28;45102;-75
2023/12/17 01:09:58;;;;;;;;;54.25;43.25;;;;;7.69;65.25;103640.97;5073073;28;46138;-80
2023/12/17 01:12:24;;;;;;;;;53.50;43.00;;;;;7.66;65.11;103639.28;5072989;28;44905;-79
2023/12/17 01:14:49;;;;;;;;;53.00;42.50;;;;;7.70;65.70;103655.91;5073548;28;45079;-79
2023/12/17 01:17:14;;;;;;;;;60.25;46.00;;;;;7.70;65.44;103654.13;5057932;28;45128;-79
2023/12/17 01:19:40;;;;;;;;;46.50;37.75;;;;;7.72;65.52;103657.59;5067728;28;47499;-79
2023/12/17 01:22:05;;;;;;;;;51.33;40.67;;;;;7.55;65.05;103633.47;5073189;28;44979;-77
2023/12/17 01:24:32;;;;;;;;;48.67;38.00;;;;;7.69;64.94;103659.50;5065346;28;45047;-81
2023/12/17 01:26:58;;;;;;;;;52.33;42.00;;;;;7.62;64.79;103657.06;5051404;28;45203;-79
2023/12/17 01:29:23;;;;;;;;;41.33;36.00;;;;;7.56;65.12;103659.03;5064089;28;45417;-79
2023/12/17 01:31:49;;;;;;;;;46.00;38.33;;;;;7.46;64.75;103631.19;5066575;28;45015;-81
2023/12/17 01:34:14;;;;;;;;;45.00;38.33;;;;;7.56;64.67;103657.25;5055944;28;45453;-80
2023/12/17 01:36:39;;;;;;;;;44.67;37.67;;;;;7.42;65.09;103646.31;5056506;28;45689;-80
2023/12/17 01:39:05;;;;;;;;;50.33;41.67;;;;;7.46;65.16;103647.06;5049879;28;47308;-80
2023/12/17 01:41:30;;;;;;;;;49.67;41.00;;;;;7.27;65.18;103608.00;5049430;28;45600;-81
2023/12/17 01:43:55;;;;;;;;;50.00;38.50;;;;;7.50;64.99;103646.88;5062986;28;45512;-79
2023/12/17 01:46:21;;;;;;;;;44.33;36.67;;;;;7.47;64.87;103652.28;5059778;28;45356;-77
2023/12/17 01:48:47;;;;;;;;;48.00;40.67;;;;;7.39;65.14;103653.47;5064946;28;45280;-77
2023/12/17 01:51:12;;;;;;;;;45.75;39.50;;;;;7.38;65.61;103646.44;5050075;28;45166;-80
2023/12/17 01:53:39;;;;;;;;;45.33;38.33;;;;;7.31;65.55;103643.16;5058733;28;45145;-77
2023/12/17 01:56:06;;;;;;;;;41.67;31.00;;;;;6.99;66.05;103586.88;5051943;28;45009;-76
2023/12/17 01:58:32;;;;;;;;;52.67;40.67;;;;;7.27;65.61;103634.44;5063010;28;45124;-76
2023/12/17 02:00:59;;;;;;;;;35.67;34.00;;;;;7.26;65.78;103643.31;5070734;28;45001;-76
2023/12/17 02:03:24;;;;;;;;;41.67;38.00;;;;;7.26;65.74;103642.44;5066298;28;45206;-77
2023/12/17 02:05:49;;;;;;;;;44.00;36.00;;;;;7.23;65.68;103643.41;5058253;28;45323;-77
2023/12/17 02:08:15;;;;;;;;;41.33;36.33;;;;;6.63;66.01;103554.59;5057076;28;45976;-78
2023/12/17 02:10:40;;;;;;;;;44.00;37.00;;;;;7.19;65.14;103657.63;5052369;28;45075;-80
2023/12/17 02:13:09;;;;;;;;;41.67;35.00;;;;;7.12;65.90;103660.53;5067016;28;45310;-77
2023/12/17 02:15:38;;;;;;;;;38.33;34.00;;;;;7.04;65.61;103628.19;5065838;28;44858;-76
2023/12/17 02:18:04;;;;;;;;;38.33;33.33;;;;;7.08;66.14;103654.50;5057706;28;46126;-75
2023/12/17 02:20:30;;;;;;;;;40.67;35.33;;;;;6.98;65.72;103627.47;5070678;28;45275;-75
2023/12/17 02:22:58;;;;;;;;;41.33;36.33;;;;;7.09;65.64;103644.78;5071722;28;45460;-74
2023/12/17 02:25:24;;;;;;;;;42.67;35.33;;;;;6.93;65.57;103604.72;5053084;28;45150;-74
2023/12/17 02:27:49;;;;;;;;;34.67;31.67;;;;;7.01;65.61;103605.38;5061533;28;45444;-75
2023/12/17 02:30:15;;;;;;;;;39.33;35.33;;;;;7.11;65.91;103622.66;5061953;28;45067;-76
2023/12/17 02:32:40;;;;;;;;;40.00;33.33;;;;;6.97;65.20;103604.56;5067740;28;45272;-75
2023/12/17 02:35:06;;;;;;;;;41.33;33.67;;;;;6.94;65.33;103588.81;5056500;28;45475;-72
2023/12/17 02:37:31;;;;;;;;;40.33;36.00;;;;;7.06;65.70;103602.56;5073985;28;46532;-75
2023/12/17 02:39:57;;;;;;;;;39.00;37.00;;;;;7.06;65.58;103618.44;5066909;28;44914;-75
2023/12/17 02:42:22;;;;;;;;;40.67;34.67;;;;;7.05;65.87;103603.47;5064932;28;45003;-76
2023/12/17 02:44:48;;;;;;;;;37.33;33.00;;;;;7.00;65.47;103601.81;5056422;28;45024;-75
2023/12/17 02:47:13;;;;;;;;;31.67;30.00;;;;;7.00;65.30;103593.03;5055922;28;46019;-73
2023/12/17 02:49:40;;;;;;;;;40.33;35.67;;;;;7.00;65.36;103601.81;5056975;28;45042;-75
2023/12/17 02:52:06;;;;;;;;;31.00;25.00;;;;;6.99;65.78;103597.44;5070738;28;45129;-76
2023/12/17 02:54:31;;;;;;;;;42.00;36.33;;;;;7.05;65.57;103584.97;5061919;28;45501;-73
2023/12/17 02:56:56;;;;;;;;;36.00;32.67;;;;;6.89;65.31;103556.38;5061771;28;45226;-74
2023/12/17 02:59:22;;;;;;;;;40.00;34.67;;;;;6.95;65.26;103548.22;5063477;28;45029;-78
2023/12/17 03:01:47;;;;;;;;;38.00;32.33;;;;;7.11;65.57;103569.72;5062218;28;45250;-74
2023/12/17 03:04:13;;;;;;;;;43.33;37.33;;;;;7.07;64.88;103561.97;5067527;28;44953;-73
2023/12/17 03:06:39;;;;;;;;;49.67;37.67;;;;;7.05;64.83;103566.44;5065347;28;45104;-76
2023/12/17 03:09:05;;;;;;;;;42.33;37.00;;;;;6.67;65.06;103502.47;5053619;28;45732;-77
2023/12/17 03:11:30;;;;;;;;;42.67;34.67;;;;;6.93;64.93;103555.34;5059597;28;45206;-74
2023/12/17 03:13:56;;;;;;;;;45.67;35.33;;;;;6.90;65.19;103550.16;5054315;28;46116;-76
2023/12/17 03:16:23;;;;;;;;;43.00;37.00;;;;;6.86;65.46;103548.53;5054149;28;45120;-78
2023/12/17 03:18:48;;;;;;;;;43.33;37.67;;;;;6.63;65.40;103535.22;5054571;28;45366;-75
2023/12/17 03:21:13;;;;;;;;;41.00;36.67;;;;;6.49;65.94;103516.31;5061342;28;45184;-76
2023/12/17 03:23:39;;;;;;;;;38.67;33.67;;;;;6.43;66.05;103514.72;5066306;28;44967;-76
2023/12/17 03:26:04;;;;;;;;;44.00;37.33;;;;;6.60;65.37;103545.88;5074761;28;45895;-79
2023/12/17 03:28:30;;;;;;;;;39.33;34.00;;;;;6.47;66.05;103528.69;5063725;28;45353;-75
2023/12/17 03:30:55;;;;;;;;;40.67;34.33;;;;;6.44;65.93;103512.94;5052775;28;45163;-77
2023/12/17 03:33:21;;;;;;;;;42.00;37.00;;;;;6.63;66.07;103540.50;5067313;28;45243;-77
2023/12/17 03:35:47;;;;;;;;;36.67;35.67;;;;;6.62;65.68;103544.94;5052294;28;45085;-73
2023/12/17 03:38:13;;;;;;;;;36.67;34.33;;;;;6.51;65.72;103525.91;5058208;28;45309;-76
2023/12/17 03:40:39;;;;;;;;;34.67;33.33;;;;;6.59;65.29;103534.44;5062835;28;45357;-74
2023/12/17 03:43:06;;;;;;;;;37.67;34.00;;;;;6.62;65.14;103538.78;5062243;28;45307;-74
2023/12/17 03:45:33;;;;;;;;;30.67;28.67;;;;;6.49;65.43;103508.38;5061349;28;44992;-74
2023/12/17 03:47:59;;;;;;;;;43.67;34.00;;;;;6.65;64.66;103538.69;5072659;28;45292;-74
2023/12/17 03:50:24;;;;;;;;;19.33;18.00;;;;;6.62;65.21;103528.22;5066468;28;45376;-74
2023/12/17 03:52:52;;;;;;;;;38.33;33.33;;;;;6.55;64.96;103516.09;5063012;28;45261;-75
2023/12/17 03:55:18;;;;;;;;;37.00;33.33;;;;;6.33;64.83;103489.50;5054216;28;45529;-75
2023/12/17 03:57:46;;;;;;;;;34.33;31.00;;;;;6.50;65.04;103524.19;5053426;28;45190;-74
2023/12/17 04:00:12;;;;;;;;;35.33;30.00;;;;;6.55;65.40;103516.09;5060672;28;45092;-75
2023/12/17 04:02:37;;;;;;;;;35.33;29.00;;;;;6.54;65.07;103519.66;5069656;28;45290;-73
2023/12/17 04:05:03;;;;;;;;;31.67;29.67;;;;;5.70;65.16;103385.84;5057996;28;45543;-76
2023/12/17 04:07:30;;;;;;;;;33.00;31.00;;;;;6.39;64.89;103500.72;5051295;28;45265;-78
2023/12/17 04:10:00;;;;;;;;;33.00;30.00;;;;;6.42;65.50;103509.50;5066179;28;45229;-78
2023/12/17 04:12:26;;;;;;;;;31.33;28.33;;;;;6.48;65.13;103522.50;5050259;28;44970;-79
2023/12/17 04:14:51;;;;;;;;;33.67;31.67;;;;;6.38;65.44;103499.00;5050573;28;45563;-76
2023/12/17 04:17:16;;;;;;;;;31.33;29.00;;;;;6.54;65.40;103514.38;5053030;28;44950;-80
2023/12/17 04:19:42;;;;;;;;;27.33;24.33;;;;;6.54;64.60;103509.06;5059356;28;45341;-75
2023/12/17 04:22:07;;;;;;;;;27.33;26.33;;;;;6.42;64.78;103483.94;5062279;27;45222;-77
2023/12/17 04:24:32;;;;;;;;;28.00;25.00;;;;;6.42;64.92;103485.72;5053334;28;45704;-75
2023/12/17 04:26:58;;;;;;;;;31.00;26.00;;;;;6.55;64.64;103514.31;5053209;28;45185;-76
2023/12/17 04:29:23;;;;;;;;;28.33;27.00;;;;;6.35;64.56;103483.25;5051000;28;44955;-79
2023/12/17 04:31:49;;;;;;;;;29.00;22.67;;;;;6.32;64.44;103487.78;5059727;28;44969;-77
2023/12/17 04:34:14;;;;;;;;;28.67;22.33;;;;;6.38;64.19;103504.28;5061802;28;45584;-77
2023/12/17 04:36:41;;;;;;;;;24.67;20.33;;;;;6.35;63.71;103496.47;5057241;28;45482;-79
2023/12/17 04:39:06;;;;;;;;;24.67;20.33;;;;;6.34;63.86;103496.50;5051351;28;45100;-78
2023/12/17 04:41:33;;;;;;;;;21.67;19.33;;;;;6.36;63.99;103495.53;5052129;28;45296;-78
2023/12/17 04:43:58;;;;;;;;;18.33;18.00;;;;;6.38;64.19;103495.50;5052916;28;45633;-78
2023/12/17 04:46:24;;;;;;;;;20.00;18.33;;;;;6.26;63.16;103478.28;5061935;28;45424;-75
2023/12/17 04:48:50;;;;;;;;;23.00;19.00;;;;;6.38;63.64;103492.84;5056029;28;45094;-76
2023/12/17 04:51:16;;;;;;;;;19.00;19.00;;;;;6.43;63.51;103495.38;5064546;28;45161;-75
2023/12/17 04:53:42;;;;;;;;;17.67;17.67;;;;;6.40;64.08;103493.66;5064834;28;45055;-73
2023/12/17 04:56:08;;;;;;;;;17.33;17.00;;;;;6.40;63.32;103497.16;5053903;28;45103;-75
2023/12/17 04:58:33;;;;;;;;;19.67;16.67;;;;;6.29;63.57;103496.66;5062549;28;45072;-75
2023/12/17 05:00:59;;;;;;;;;17.33;17.33;;;;;6.23;63.53;103502.16;5063318;28;45110;-78
2023/12/17 05:03:28;;;;;;;;;16.33;15.67;;;;;6.18;63.77;103485.56;5070860;28;45623;-75
2023/12/17 05:05:53;;;;;;;;;18.33;16.33;;;;;6.13;63.54;103465.50;5065763;28;45162;-76
2023/12/17 05:08:19;;;;;;;;;25.00;21.00;;;;;6.25;63.37;103491.53;5054131;28;45176;-77
2023/12/17 05:10:45;;;;;;;;;15.00;15.00;;;;;6.16;64.22;103487.38;5074892;28;45015;-74
2023/12/17 05:13:11;;;;;;;;;17.00;16.00;;;;;5.95;64.26;103472.22;5060762;28;45727;-77
2023/12/17 05:15:36;;;;;;;;;16.00;15.67;;;;;5.98;64.53;103480.91;5064091;28;45301;-77
2023/12/17 05:18:02;;;;;;;;;17.00;15.00;;;;;6.00;64.35;103481.72;5069864;28;45194;-77
2023/12/17 05:20:27;;;;;;;;;16.00;15.67;;;;;6.05;64.23;103484.25;5066931;28;45542;-77
2023/12/17 05:22:53;;;;;;;;;18.67;16.33;;;;;6.08;63.71;103485.00;5054573;28;45451;-78
2023/12/17 05:25:18;;;;;;;;;21.67;18.67;;;;;6.10;63.51;103491.09;5053384;28;45862;-73
2023/12/17 05:27:44;;;;;;;;;14.33;13.00;;;;;6.02;63.98;103500.19;5062397;28;45157;-76
2023/12/17 05:30:10;;;;;;;;;20.33;17.33;;;;;6.02;64.54;103505.47;5058040;28;44938;-75
2023/12/17 05:32:36;;;;;;;;;20.33;19.67;;;;;5.97;63.82;103491.50;5057321;28;46847;-79
2023/12/17 05:35:01;;;;;;;;;21.67;17.33;;;;;5.99;64.39;103505.53;5067613;28;45520;-74
2023/12/17 05:37:26;;;;;;;;;20.00;19.67;;;;;5.95;63.86;103496.84;5067477;28;45020;-75
2023/12/17 05:39:52;;;;;;;;;18.67;17.00;;;;;5.96;63.53;103508.28;5049171;28;45258;-75
2023/12/17 05:42:17;;;;;;;;;17.33;16.00;;;;;5.98;63.90;103509.09;5048164;28;46347;-75
2023/12/17 05:44:42;;;;;;;;;16.67;16.67;;;;;5.96;64.53;103509.13;5052058;28;45016;-77
2023/12/17 05:47:08;;;;;;;;;16.67;16.67;;;;;5.96;64.21;103511.78;5056235;28;45114;-77
2023/12/17 05:49:37;;;;;;;;;21.33;19.00;;;;;5.37;64.43;103415.88;5053949;28;44882;-77
2023/12/17 05:52:03;;;;;;;;;18.67;18.00;;;;;6.00;64.20;103512.53;5060666;28;45135;-77
2023/12/17 05:54:28;;;;;;;;;23.00;18.33;;;;;5.93;63.97;103503.94;5056266;28;44945;-74
2023/12/17 05:56:54;;;;;;;;;19.00;15.67;;;;;5.90;63.66;103500.53;5063075;28;45181;-74
2023/12/17 05:59:19;;;;;;;;;18.67;18.67;;;;;5.95;63.75;103512.69;5050610;28;45207;-75
2023/12/17 06:01:44;;;;;;;;;22.33;19.67;;;;;5.80;64.23;103489.34;5055751;28;45232;-73
2023/12/17 06:04:10;;;;;;;;;17.33;16.00;;;;;5.94;64.08;103507.47;5049236;28;44965;-74
2023/12/17 06:06:35;;;;;;;;;17.67;15.33;;;;;5.69;63.90;103479.13;5047933;28;45397;-75
2023/12/17 06:09:00;;;;;;;;;15.67;15.67;;;;;5.71;64.62;103493.13;5047774;28;45253;-75
2023/12/17 06:11:26;;;;;;;;;18.67;18.67;;;;;5.79;64.75;103508.75;5049164;28;45438;-74
2023/12/17 06:13:51;;;;;;;;;18.33;17.00;;;;;5.77;64.84;103500.00;5064329;28;45146;-76
2023/12/17 06:16:16;;;;;;;;;18.67;17.00;;;;;5.76;64.63;103504.41;5062968;28;45045;-74
2023/12/17 06:18:42;;;;;;;;;16.00;15.67;;;;;5.74;64.89;103513.31;5058939;28;45029;-76
2023/12/17 06:21:07;;;;;;;;;20.33;17.33;;;;;5.67;65.21;103509.13;5058815;28;45368;-75
2023/12/17 06:23:33;;;;;;;;;18.67;16.33;;;;;5.64;64.88;103498.66;5052363;28;47151;-73
2023/12/17 06:25:58;;;;;;;;;18.00;17.33;;;;;5.64;64.75;103499.53;5060649;28;45225;-77
2023/12/17 06:28:24;;;;;;;;;20.00;18.00;;;;;5.16;64.96;103426.13;5058763;28;45040;-73
2023/12/17 06:30:50;;;;;;;;;17.67;17.00;;;;;5.54;65.50;103491.91;5050305;28;45718;-73
2023/12/17 06:33:15;;;;;;;;;23.33;21.33;;;;;5.57;65.74;103505.88;5058134;28;45090;-75
2023/12/17 06:35:41;;;;;;;;;20.00;20.00;;;;;5.53;65.53;103511.28;5059219;28;44973;-76
2023/12/17 06:38:06;;;;;;;;;20.33;17.00;;;;;5.48;65.79;103504.38;5064646;28;45268;-75
2023/12/17 06:40:31;;;;;;;;;24.00;20.33;;;;;5.48;66.34;103512.28;5051318;28;45383;-74
2023/12/17 06:42:57;;;;;;;;;18.00;18.00;;;;;5.41;66.34;103501.97;5064973;28;45270;-73
2023/12/17 06:45:23;;;;;;;;;28.33;23.00;;;;;5.49;66.55;103505.22;5062093;28;45274;-75
2023/12/17 06:47:49;;;;;;;;;25.33;22.00;;;;;5.43;65.76;103500.13;5067508;28;45023;-75
2023/12/17 06:50:15;;;;;;;;;18.67;18.33;;;;;5.47;65.86;103499.13;5049830;28;45639;-74
2023/12/17 06:52:40;;;;;;;;;12.33;10.00;;;;;5.52;65.54;103510.41;5060217;28;44878;-77
2023/12/17 06:55:06;;;;;;;;;23.00;19.00;;;;;5.49;66.45;103494.69;5063812;28;45090;-75
2023/12/17 06:57:31;;;;;;;;;24.00;20.67;;;;;5.53;66.04;103498.94;5054446;28;44995;-75
2023/12/17 06:59:57;;;;;;;;;20.67;19.00;;;;;5.49;65.57;103497.31;5051834;28;45364;-74
2023/12/17 07:02:22;;;;;;;;;21.67;21.67;;;;;5.58;65.42;103501.44;5054016;28;45343;-75
2023/12/17 07:04:47;;;;;;;;;15.67;15.67;;;;;5.54;65.96;103492.75;5053915;28;45346;-74
2023/12/17 07:07:13;;;;;;;;;30.00;22.33;;;;;5.58;66.05;103504.94;5061232;28;45167;-74
2023/12/17 07:09:38;;;;;;;;;17.67;17.00;;;;;5.57;66.24;103502.38;5064567;28;45170;-76
2023/12/17 07:12:04;;;;;;;;;21.00;19.33;;;;;5.43;65.98;103479.03;5066484;28;45064;-74
2023/12/17 07:14:29;;;;;;;;;21.33;20.33;;;;;5.58;66.21;103520.78;5066342;28;45291;-76
2023/12/17 07:16:54;;;;;;;;;22.67;22.67;;;;;5.52;66.27;103499.00;5057259;28;45342;-74
2023/12/17 07:19:20;;;;;;;;;19.67;19.67;;;;;5.46;66.53;103484.22;5055135;28;45706;-75
2023/12/17 07:21:45;;;;;;;;;28.33;21.67;;;;;5.56;66.77;103512.06;5064026;28;45055;-74
2023/12/17 07:24:10;;;;;;;;;21.33;20.00;;;;;5.52;65.90;103505.13;5060781;28;45144;-75
2023/12/17 07:26:36;;;;;;;;;28.00;22.67;;;;;4.76;65.70;103378.94;5069132;28;45150;-73
2023/12/17 07:29:01;;;;;;;;;21.00;21.00;;;;;5.55;66.53;103505.03;5052577;28;45854;-77
2023/12/17 07:31:26;;;;;;;;;24.33;23.00;;;;;5.44;65.64;103497.47;5052909;28;45477;-77
2023/12/17 07:33:52;;;;;;;;;14.67;14.67;;;;;5.21;65.61;103467.38;5063424;28;45555;-77
2023/12/17 07:36:17;;;;;;;;;23.67;21.67;;;;;5.26;66.47;103490.06;5066952;28;45106;-77
2023/12/17 07:38:43;;;;;;;;;21.33;17.33;;;;;5.26;66.38;103491.81;5054413;28;45891;-76
2023/12/17 07:41:08;;;;;;;;;23.00;19.67;;;;;4.87;66.86;103431.34;5058178;28;45253;-77
2023/12/17 07:43:34;;;;;;;;;17.67;13.67;;;;;5.18;66.39;103490.25;5064678;28;46178;-75
2023/12/17 07:46:00;;;;;;;;;18.33;17.67;;;;;5.26;67.14;103491.81;5069823;28;45299;-74
2023/12/17 07:48:25;;;;;;;;;22.33;19.00;;;;;5.26;67.23;103491.81;5041386;28;45982;-86
2023/12/17 07:50:54;;;;;;;;;18.00;16.33;;;;;4.78;67.21;103423.69;5067446;28;45187;-76
2023/12/17 07:53:20;;;;;;;;;21.00;21.00;;;;;5.11;67.40;103487.81;5060380;28;45068;-75
2023/12/17 07:55:45;;;;;;;;;19.33;16.67;;;;;5.15;66.91;103495.59;5061019;28;45249;-76
2023/12/17 07:58:10;;;;;;;;;17.33;14.67;;;;;5.13;67.33;103496.56;5057960;28;45324;-79
2023/12/17 08:00:36;;;;;;;;;23.33;20.00;;;;;5.12;67.70;103494.84;5064342;28;45106;-76
2023/12/17 08:03:01;;;;;;;;;17.67;16.67;;;;;4.98;68.21;103460.91;5056650;28;45489;-74
2023/12/17 08:05:28;;;;;;;;;22.67;17.33;;;;;4.88;67.33;103438.38;5061796;28;45249;-83
2023/12/17 08:07:53;;;;;;;;;19.67;16.00;;;;;5.08;67.71;103466.81;5049948;28;45551;-76
2023/12/17 08:10:19;;;;;;;;;20.00;17.33;;;;;5.02;66.95;103441.50;5051062;28;45742;-76
2023/12/17 08:12:44;;;;;;;;;18.67;17.67;;;;;5.22;66.98;103479.63;5052434;28;45142;-74
2023/12/17 08:15:10;;;;;;;;;21.00;19.67;;;;;5.27;67.81;103493.56;5046684;28;45297;-78
2023/12/17 08:17:35;;;;;;;;;18.00;17.00;;;;;5.27;67.14;103491.78;5053756;28;45382;-78
2023/12/17 08:20:01;;;;;;;;;20.33;18.00;;;;;5.35;66.48;103497.69;5056213;28;45085;-78
2023/12/17 08:22:26;;;;;;;;;21.33;19.00;;;;;5.29;66.98;103471.50;5055032;28;45190;-78
2023/12/17 08:24:51;;;;;;;;;21.00;19.33;;;;;5.20;66.10;103461.19;5061344;28;45275;-79
2023/12/17 08:27:17;;;;;;;;;24.00;18.00;;;;;5.43;66.44;103494.88;5057192;28;45795;-80
2023/12/17 08:29:47;;;;;;;;;21.67;18.00;;;;;5.45;66.57;103499.19;5072830;28;45199;-79
2023/12/17 08:32:13;;;;;;;;;19.33;19.33;;;;;5.43;66.07;103484.31;5073107;28;45522;-81
2023/12/17 08:34:39;;;;;;;;;24.67;19.67;;;;;5.27;66.70;103452.22;5080873;28;44856;-83
2023/12/17 08:37:04;;;;;;;;;24.67;22.00;;;;;4.47;66.65;103321.75;5066695;28;45304;-77
2023/12/17 08:39:30;;;;;;;;;23.33;19.33;;;;;5.41;66.37;103487.00;5061182;28;45294;-78
2023/12/17 08:41:56;;;;;;;;;17.33;17.33;;;;;5.25;67.06;103454.03;5049299;28;45433;-77
2023/12/17 08:44:23;;;;;;;;;16.00;15.67;;;;;5.09;66.08;103421.94;5045409;28;45536;-80
2023/12/17 08:46:52;;;;;;;;;20.67;19.00;;;;;5.66;66.51;103486.28;5045417;28;45419;-77
2023/12/17 08:49:18;;;;;;;;;29.33;21.67;;;;;5.81;66.14;103496.38;5046137;28;45407;-77
2023/12/17 08:51:44;;;;;;;;;22.33;20.67;;;;;5.19;65.03;103365.38;5043318;28;45361;-76
2023/12/17 08:54:10;;;;;;;;;20.33;17.33;;;;;6.14;64.38;103473.38;5044989;28;45552;-76
2023/12/17 08:56:36;;;;;;;;;19.00;17.33;;;;;6.18;64.36;103416.03;5045535;28;45838;-78
2023/12/17 08:59:02;;;;;;;;;23.33;21.00;;;;;6.93;62.64;103435.47;5047517;28;45488;-78
2023/12/17 09:01:28;;;;;;;;;20.00;19.33;;;;;6.92;61.04;103420.53;5042921;28;45451;-75
2023/12/17 09:03:53;;;;;;;;;25.33;21.33;;;;;7.17;61.82;103491.91;5052424;28;45346;-75
2023/12/17 09:06:18;;;;;;;;;25.67;22.67;;;;;7.05;61.95;103485.31;5040717;28;46617;-78
2023/12/17 09:08:44;;;;;;;;;18.67;17.67;;;;;6.95;61.89;103489.16;5046713;28;45444;-79
2023/12/17 09:11:09;;;;;;;;;24.00;20.00;;;;;6.75;62.79;103455.47;5040478;28;45413;-78
2023/12/17 09:13:34;;;;;;;;;28.67;24.67;;;;;6.79;63.06;103480.91;5034900;28;45487;-76
2023/12/17 09:16:00;;;;;;;;;24.00;21.33;;;;;6.79;63.22;103477.38;5046448;28;45378;-80
2023/12/17 09:18:25;;;;;;;;;24.33;20.33;;;;;6.78;62.98;103483.59;5050551;28;45511;-79
2023/12/17 09:20:51;;;;;;;;;23.33;22.00;;;;;6.35;63.30;103409.28;5053141;28;44854;-78
2023/12/17 09:23:16;;;;;;;;;27.00;23.33;;;;;6.88;63.15;103488.53;5044491;28;45588;-77
2023/12/17 09:25:41;;;;;;;;;22.67;19.33;;;;;6.84;62.58;103475.47;5039248;28;45291;-76
2023/12/17 09:28:07;;;;;;;;;24.00;22.00;;;;;6.42;63.03;103401.16;5035384;28;45378;-76
2023/12/17 09:30:33;;;;;;;;;20.33;19.33;;;;;6.89;63.21;103484.97;5049785;28;45285;-79
2023/12/17 09:32:58;;;;;;;;;31.33;24.33;;;;;6.79;62.33;103491.47;5057183;28;45453;-78
2023/12/17 09:35:24;;;;;;;;;24.67;21.67;;;;;6.72;62.52;103495.25;5050190;28;48194;-77
2023/12/17 09:37:50;;;;;;;;;21.00;21.00;;;;;6.61;62.73;103473.63;5055281;28;45311;-75
2023/12/17 09:40:18;;;;;;;;;27.00;23.33;;;;;6.34;62.90;103423.41;5054057;28;45389;-78
2023/12/17 09:42:48;;;;;;;;;19.33;17.00;;;;;6.15;62.94;103395.84;5045582;28;45386;-77
2023/12/17 09:45:14;;;;;;;;;23.33;20.33;;;;;6.72;62.92;103492.59;5047208;28;45499;-77
2023/12/17 09:47:42;;;;;;;;;28.67;23.00;;;;;6.69;63.47;103496.22;5036485;28;45568;-74
2023/12/17 09:50:09;;;;;;;;;30.67;22.33;;;;;6.61;63.21;103484.19;5039441;28;45548;-75
2023/12/17 09:52:40;;;;;;;;;24.00;21.00;;;;;6.55;64.16;103487.88;5040482;28;45557;-77
2023/12/17 09:55:05;;;;;;;;;27.33;21.67;;;;;6.58;63.83;103484.28;5044236;28;45900;-78
2023/12/17 09:57:31;;;;;;;;;7.67;5.67;;;;;6.60;63.91;103493.00;5042658;28;45644;-79
2023/12/17 09:59:56;;;;;;;;;28.67;27.33;;;;;6.20;63.71;103422.13;5056023;28;45349;-79
2023/12/17 10:02:22;;;;;;;;;28.00;27.33;;;;;6.55;63.83;103476.44;5061278;28;45343;-78
2023/12/17 10:04:47;;;;;;;;;19.67;17.67;;;;;6.21;64.09;103413.31;5052429;28;45450;-83
2023/12/17 10:07:13;;;;;;;;;31.00;26.00;;;;;4.36;63.91;103107.84;5060508;28;45533;-80
2023/12/17 10:09:38;;;;;;;;;21.33;20.00;;;;;6.66;64.20;103487.53;5058076;28;45569;-81
2023/12/17 10:12:04;;;;;;;;;33.67;27.33;;;;;6.35;63.97;103433.03;5044326;28;45741;-80
2023/12/17 10:14:30;;;;;;;;;20.00;19.67;;;;;6.63;63.91;103474.44;5044412;28;45560;-82
2023/12/17 10:16:58;;;;;;;;;30.00;25.33;;;;;6.61;64.28;103478.91;5037920;28;45352;-78
2023/12/17 10:19:24;;;;;;;;;22.00;22.00;;;;;6.59;64.54;103478.06;5039862;28;45522;-76
2023/12/17 10:21:50;;;;;;;;;35.67;30.00;;;;;6.55;64.25;103473.81;5044261;28;45260;-75
2023/12/17 10:24:17;;;;;;;;;28.67;25.33;;;;;6.63;64.86;103471.78;5044481;28;45592;-80
2023/12/17 10:26:48;;;;;;;;;34.33;32.67;;;;;6.57;64.23;103461.41;5058032;28;45470;-77
2023/12/17 10:29:18;;;;;;;;;35.00;29.33;;;;;6.39;65.09;103431.16;5037379;28;45294;-76
2023/12/17 10:31:44;;;;;;;;;27.33;24.00;;;;;6.63;64.17;103467.38;5050593;28;46216;-79
2023/12/17 10:34:18;;;;;;;;;29.67;27.33;;;;;5.99;64.30;103365.56;5054724;28;46336;-76
2023/12/17 10:36:47;;;;;;;;;28.00;25.67;;;;;6.54;64.70;103450.94;5048398;28;45491;-77
2023/12/17 10:39:14;;;;;;;;;31.67;31.33;;;;;6.56;64.57;103449.97;5046870;28;45519;-75
2023/12/17 10:41:41;;;;;;;;;29.33;26.33;;;;;6.24;65.20;103400.00;5038939;28;45310;-77
2023/12/17 10:44:11;;;;;;;;;27.33;22.67;;;;;6.61;65.06;103442.75;5038807;28;45480;-79
2023/12/17 10:46:42;;;;;;;;;30.33;26.00;;;;;6.30;64.43;103381.28;5038507;28;45276;-74
2023/12/17 10:49:08;;;;;;;;;30.33;28.67;;;;;6.71;64.89;103428.28;5056915;28;45691;-77
2023/12/17 10:51:37;;;;;;;;;30.00;25.67;;;;;6.71;64.07;103425.66;5047618;28;45397;-78
2023/12/17 10:54:03;;;;;;;;;30.33;27.00;;;;;4.87;64.84;103139.66;5052503;28;46497;-79
2023/12/17 10:56:34;;;;;;;;;29.33;25.00;;;;;6.06;64.68;103319.59;5051307;28;45509;-75
2023/12/17 10:59:07;;;;;;;;;31.67;26.33;;;;;6.59;64.48;103386.41;5043462;28;45392;-77
2023/12/17 11:01:34;;;;;;;;;29.00;25.00;;;;;6.19;64.44;103307.66;5043423;28;45302;-81
2023/12/17 11:04:00;;;;;;;;;33.67;27.67;;;;;6.65;64.61;103388.00;5039824;28;45457;-76
2023/12/17 11:06:26;;;;;;;;;30.33;26.33;;;;;6.25;64.57;103318.03;5039882;28;45421;-77
2023/12/17 11:08:51;;;;;;;;;30.33;25.33;;;;;6.02;64.67;103268.66;5044622;28;45349;-80
2023/12/17 11:11:19;;;;;;;;;31.00;27.67;;;;;6.49;64.68;103353.31;5043539;28;45517;-77